Woodland, CA

02:08 PM PDT am 25. Oktober 2014 (GMT -0700)
Mather | Change Station
CLOSE
Current Station
Flughafen
Location: Mather AFB,
Höhe: 95 ft
Wetterstationen in der Umgebung
aktive Warnung: Wind Advisory aktiver Hinweis: Public Information Statement

Höhe 95 ft 38.56 °N, 121.30 °W | Updated 22 minutes ago

Wolkig
Wolkig
66 °F
gefühlte 66 °F
N
15
Wind Wechselnd Wind aus Südost

Heute
Max. -- | schwach -- °F
--% Regenrisiko
Gestern
Max. -- | schwach -- °F
Precip. -- inch
7:26 AM 6:15 PM
Erstes Viertel, 4% visible
Druck 30.04 inch
Sichtweite 10.0 Meilen
Wolken Wolkig 4500 ft
Wolkig 6000 ft
Taupunkt 57 °F
Feuchtigkeit 73%
Regen 0.00 inch
Schneehöhe Nicht verfügbar..
UV 2 von 12
Pollen 2.40 von 12
Ozon Gut
PM2.5 Gut
Flu Activity Sporadic
METAR KMHR 252046Z 14013KT 10SM BKN045 BKN060 19/14 A3004

More Conditions Fewer Conditions

Druck 30.04 inch
Sichtweite 10.0 Meilen
Wolken Wolkig 4500 ft
Wolkig 6000 ft
Taupunkt 57 °F
Feuchtigkeit 73%
Regen 0.00 inch
Schneehöhe Nicht verfügbar..
UV 2 von 12
Pollen 2.40 von 12
Ozon Gut
PM2.5 Gut
Flu Activity Sporadic
METAR KMHR 252046Z 14013KT 10SM BKN045 BKN060 19/14 A3004

More Conditions Fewer Conditions

10-Day Weather Forecast

Almanac

Astronomie

Oct. 25, 2014 Aufgang Untergang
Genaue Zeit 07:26 PDT 18:15 PDT
Bürgerliche Dämmerung 06:59 PDT 18:42 PDT
Nautische Dämmerung 06:28 PDT 19:13 PDT
Astronomische Dämmerung 05:57 PDT 19:44 PDT
Mond 09:09 PDT 19:43 PDT
Länge des sichtbaren Lichts 11h 42m
Tageslänge
10h 48m
Tomorrow will be 2m 19s shorter.
Erstes Viertel, 4% of the Moon is Illuminated
Heute
Erstes Viertel
Okt 30
Erstes Viertel
Nov 6
Vollmond
Nov 14
Letztes Viertel
Nov 22
Neu

Heutige Rekorde

State Highs State Lows

Community

WunderPhotos

Upload Photos

1,764,996 Fotos hochgeladen!

Nearby

Luftqualität

  Luftqualität LQ Index Schadstoff
Gestern Gut
OZONE
Gestern Gut
PM2.5
Aktuell Gut
OZONE
Aktuell Gut
PM2.5
Samstag Gut
OZONE
Sonntag Gut
OZONE
Montag Gut
OZONE
Dienstag Gut
OZONE
Mittwoch Gut
OZONE
Donnerstag Gut
OZONE

Schneehöhe

Station Depth Höhe
CSS Lab 1 in 6900 ft
Ward Creek #3 1 in 6750 ft
Squaw Valley 0 in 8200 ft
Rubicon #2 1 in 7500 ft
Echo Peak 0 in 7800 ft

Erdbebenaktivität

Stadt Distance Mag. Time & Date
Antioch, California 42 Meilen 2.7 06:42 PDT
2014-10-25
Deer Park, California 37 Meilen 2.8 06:40 PDT
2014-10-25
Minimum magnitude displayed is 2.5.

küstennahe Wassertemperaturen

Ort Temperatur
Kein Stationsbericht

Wetterstationen in der Umgebung